Airfield :
LOGIN :

Register | Disclaimer

   EN    FR    IT 

 










Legend :    VFR   Marginal VFR   IFR   Intensive IFR   Very Intensive IFR
Visi :
Ceiling :
>= 8 km
>= 3000ft
5 to 8 km
1000 to 3000 ft
1500m to 5 km
500 to 1000 ft
800 to 1500m
200 to 500 ft
< 800m
< 200 ft
Symbols :   Thunderstorms  Fog  Heavy snow  Heavy precipitations  Wind > 20 kt
SIGMETs :     Misc.  Thunderstorms  Icing  Turbulence  Mountain Waves  Volcanic Ashes







- Airport Elevation : 277 ft
- IATA code : JER
- Download approach charts


EGJJ - Jersey

CURRENT METAR :
  • 232320Z AUTO 11009KT 9999 FEW020/// 12/12 Q0993 RERA

EXPIRED METARs :
  • 232250Z AUTO 14007KT 7000 RA FEW022/// SCT025/// BKN041/// 12/12 Q0994
  • 232220Z AUTO 13010KT 4000 RA FEW026/// SCT035/// BKN042/// 13/12 Q0994 REDZ
  • 232150Z AUTO 12012KT 4700 RA FEW040/// SCT047/// 13/12 Q0994 REDZ
  • 232120Z AUTO 12009KT 5000 RA FEW021/// 14/13 Q0994

TAF TAF EGJJ
Valid from the 24 at 00:00 until the 24 at 09:00 UTC


232310Z 2400/2409 13007KT 9999 FEW015 BKN025
BECMG 2400/2403 5000 BR BKN008
PROB30
TEMPO 2400/2405 0800 FG BKN000
BECMG 2403/2406 24013KT 9999 SCT010 BKN040
TEMPO 2403/2409 5000 SHRA BKN005 BKN030CB
PROB30
TEMPO 2403/2409 1200 +TSRA
ATIS : +44 1534 498 073
No reported NOTAMs for that airfield.



MET'MAP, your aeronautical weather chart ! - Copyright ORBIFLY December 2007 - Disclaimer

ORBIFLY MET'MAP TEAM :

Programming & Development : Alexandra Zaïnal
Concept & Development : Baudouin d'Aumeries
Co-Development & Prog : Marc-Olivier Méhu
Technical & hardware support : Manuel Goepfert

Contact : metmap@orbifly.com




SOURCES & CREDITS :

   NOAA